sensor_id;sensor_type;location;lat;lon;timestamp;temperature;humidity
5806;DHT22;2929;50.810;8.342;2024-01-11T00:01:55;-6.50;99.90
5806;DHT22;2929;50.810;8.342;2024-01-11T00:04:22;-6.70;99.90
5806;DHT22;2929;50.810;8.342;2024-01-11T00:06:50;-6.70;99.90
5806;DHT22;2929;50.810;8.342;2024-01-11T00:09:17;-6.70;99.90
5806;DHT22;2929;50.810;8.342;2024-01-11T00:11:44;-6.70;99.90
5806;DHT22;2929;50.810;8.342;2024-01-11T00:14:11;-6.70;99.90
5806;DHT22;2929;50.810;8.342;2024-01-11T00:16:39;-6.70;99.90
5806;DHT22;2929;50.810;8.342;2024-01-11T00:19:06;-6.70;99.90
5806;DHT22;2929;50.810;8.342;2024-01-11T00:21:33;-6.60;99.90
5806;DHT22;2929;50.810;8.342;2024-01-11T00:24:00;-6.70;99.90
5806;DHT22;2929;50.810;8.342;2024-01-11T00:26:27;-6.70;99.90
5806;DHT22;2929;50.810;8.342;2024-01-11T00:28:55;-6.70;99.90
5806;DHT22;2929;50.810;8.342;2024-01-11T00:31:22;-6.70;99.90
5806;DHT22;2929;50.810;8.342;2024-01-11T00:33:50;-6.80;99.90
5806;DHT22;2929;50.810;8.342;2024-01-11T00:36:18;-6.80;99.90
5806;DHT22;2929;50.810;8.342;2024-01-11T00:38:45;-6.80;99.90
5806;DHT22;2929;50.810;8.342;2024-01-11T00:41:12;-6.80;99.90
5806;DHT22;2929;50.810;8.342;2024-01-11T00:43:39;-6.70;99.90
5806;DHT22;2929;50.810;8.342;2024-01-11T00:46:07;-6.70;99.90
5806;DHT22;2929;50.810;8.342;2024-01-11T00:48:34;-6.70;99.90
5806;DHT22;2929;50.810;8.342;2024-01-11T00:51:04;-6.80;99.90
5806;DHT22;2929;50.810;8.342;2024-01-11T00:53:31;-6.80;99.90
5806;DHT22;2929;50.810;8.342;2024-01-11T00:55:58;-6.90;99.90
5806;DHT22;2929;50.810;8.342;2024-01-11T00:58:26;-6.90;99.90
5806;DHT22;2929;50.810;8.342;2024-01-11T01:00:53;-6.90;99.90
5806;DHT22;2929;50.810;8.342;2024-01-11T01:03:20;-6.90;99.90
5806;DHT22;2929;50.810;8.342;2024-01-11T01:05:47;-6.80;99.90
5806;DHT22;2929;50.810;8.342;2024-01-11T01:08:15;-6.80;99.90
5806;DHT22;2929;50.810;8.342;2024-01-11T01:10:42;-6.90;99.90
5806;DHT22;2929;50.810;8.342;2024-01-11T01:13:09;-7.10;99.90
5806;DHT22;2929;50.810;8.342;2024-01-11T01:15:36;-7.20;99.90
5806;DHT22;2929;50.810;8.342;2024-01-11T01:18:03;-7.20;99.90
5806;DHT22;2929;50.810;8.342;2024-01-11T01:20:31;-7.20;99.90
5806;DHT22;2929;50.810;8.342;2024-01-11T01:22:58;-7.10;99.90
5806;DHT22;2929;50.810;8.342;2024-01-11T01:25:26;-7.10;99.90
5806;DHT22;2929;50.810;8.342;2024-01-11T01:27:53;-7.20;99.90
5806;DHT22;2929;50.810;8.342;2024-01-11T01:30:20;-7.10;99.90
5806;DHT22;2929;50.810;8.342;2024-01-11T01:32:47;-7.00;99.90
5806;DHT22;2929;50.810;8.342;2024-01-11T01:35:14;-7.00;99.90
5806;DHT22;2929;50.810;8.342;2024-01-11T01:37:41;-7.00;99.90
5806;DHT22;2929;50.810;8.342;2024-01-11T01:40:09;-7.00;99.90
5806;DHT22;2929;50.810;8.342;2024-01-11T01:42:41;-7.00;99.90
5806;DHT22;2929;50.810;8.342;2024-01-11T01:45:09;-7.00;99.90
5806;DHT22;2929;50.810;8.342;2024-01-11T01:47:36;-7.00;99.90
5806;DHT22;2929;50.810;8.342;2024-01-11T01:50:04;-7.10;99.90
5806;DHT22;2929;50.810;8.342;2024-01-11T01:52:33;-7.20;99.90
5806;DHT22;2929;50.810;8.342;2024-01-11T01:55:01;-7.20;99.90
5806;DHT22;2929;50.810;8.342;2024-01-11T01:57:29;-7.30;99.90
5806;DHT22;2929;50.810;8.342;2024-01-11T01:59:58;-7.30;99.90
5806;DHT22;2929;50.810;8.342;2024-01-11T02:02:25;-7.30;99.90
5806;DHT22;2929;50.810;8.342;2024-01-11T02:04:53;-7.30;99.90
5806;DHT22;2929;50.810;8.342;2024-01-11T02:07:20;-7.30;99.90
5806;DHT22;2929;50.810;8.342;2024-01-11T02:09:48;-7.30;99.90
5806;DHT22;2929;50.810;8.342;2024-01-11T02:12:15;-7.30;99.90
5806;DHT22;2929;50.810;8.342;2024-01-11T02:14:42;-7.40;99.90
5806;DHT22;2929;50.810;8.342;2024-01-11T02:17:10;-7.40;99.90
5806;DHT22;2929;50.810;8.342;2024-01-11T02:19:37;-7.50;99.90
5806;DHT22;2929;50.810;8.342;2024-01-11T02:22:08;-7.50;99.90
5806;DHT22;2929;50.810;8.342;2024-01-11T02:24:40;-7.40;99.90
5806;DHT22;2929;50.810;8.342;2024-01-11T02:27:06;-7.40;99.90
5806;DHT22;2929;50.810;8.342;2024-01-11T02:29:35;-7.30;99.90
5806;DHT22;2929;50.810;8.342;2024-01-11T02:32:03;-7.20;99.90
5806;DHT22;2929;50.810;8.342;2024-01-11T02:34:31;-7.20;99.90
5806;DHT22;2929;50.810;8.342;2024-01-11T02:36:58;-7.30;99.90
5806;DHT22;2929;50.810;8.342;2024-01-11T02:39:26;-7.30;99.90
5806;DHT22;2929;50.810;8.342;2024-01-11T02:41:56;-7.30;99.90
5806;DHT22;2929;50.810;8.342;2024-01-11T02:44:23;-7.30;99.90
5806;DHT22;2929;50.810;8.342;2024-01-11T02:46:50;-7.40;99.90
5806;DHT22;2929;50.810;8.342;2024-01-11T02:49:17;-7.60;99.90
5806;DHT22;2929;50.810;8.342;2024-01-11T02:51:44;-7.70;99.90
5806;DHT22;2929;50.810;8.342;2024-01-11T02:54:11;-7.80;99.90
5806;DHT22;2929;50.810;8.342;2024-01-11T02:56:38;-7.80;99.90
5806;DHT22;2929;50.810;8.342;2024-01-11T02:59:06;-7.80;99.90
5806;DHT22;2929;50.810;8.342;2024-01-11T03:01:33;-7.80;99.90
5806;DHT22;2929;50.810;8.342;2024-01-11T03:04:02;-7.70;99.90
5806;DHT22;2929;50.810;8.342;2024-01-11T03:06:34;-7.70;99.90
5806;DHT22;2929;50.810;8.342;2024-01-11T03:09:03;-7.80;99.90
5806;DHT22;2929;50.810;8.342;2024-01-11T03:11:30;-7.90;99.90
5806;DHT22;2929;50.810;8.342;2024-01-11T03:13:57;-7.80;99.90
5806;DHT22;2929;50.810;8.342;2024-01-11T03:16:25;-7.80;99.90
5806;DHT22;2929;50.810;8.342;2024-01-11T03:18:52;-7.80;99.90
5806;DHT22;2929;50.810;8.342;2024-01-11T03:21:19;-8.00;99.90
5806;DHT22;2929;50.810;8.342;2024-01-11T03:23:46;-8.00;99.90
5806;DHT22;2929;50.810;8.342;2024-01-11T03:26:13;-8.10;99.90
5806;DHT22;2929;50.810;8.342;2024-01-11T03:28:40;-8.10;99.90
5806;DHT22;2929;50.810;8.342;2024-01-11T03:31:08;-8.00;99.90
5806;DHT22;2929;50.810;8.342;2024-01-11T03:33:36;-7.80;99.90
5806;DHT22;2929;50.810;8.342;2024-01-11T03:36:07;-7.80;99.90
5806;DHT22;2929;50.810;8.342;2024-01-11T03:38:34;-7.90;99.90
5806;DHT22;2929;50.810;8.342;2024-01-11T03:41:01;-7.90;99.90
5806;DHT22;2929;50.810;8.342;2024-01-11T03:43:28;-7.90;99.90
5806;DHT22;2929;50.810;8.342;2024-01-11T03:45:55;-7.90;99.90
5806;DHT22;2929;50.810;8.342;2024-01-11T03:48:22;-8.00;99.90
5806;DHT22;2929;50.810;8.342;2024-01-11T03:50:50;-7.90;99.90
5806;DHT22;2929;50.810;8.342;2024-01-11T03:53:17;-7.90;99.90
5806;DHT22;2929;50.810;8.342;2024-01-11T03:55:44;-7.90;99.90
5806;DHT22;2929;50.810;8.342;2024-01-11T03:58:11;-7.80;99.90
5806;DHT22;2929;50.810;8.342;2024-01-11T04:00:38;-7.90;99.90
5806;DHT22;2929;50.810;8.342;2024-01-11T04:03:06;-8.00;99.90
5806;DHT22;2929;50.810;8.342;2024-01-11T04:05:33;-8.00;99.90
5806;DHT22;2929;50.810;8.342;2024-01-11T04:08:03;-8.10;99.90
5806;DHT22;2929;50.810;8.342;2024-01-11T04:10:30;-8.20;99.90
5806;DHT22;2929;50.810;8.342;2024-01-11T04:12:56;-8.10;99.90
5806;DHT22;2929;50.810;8.342;2024-01-11T04:15:23;-8.00;99.90
5806;DHT22;2929;50.810;8.342;2024-01-11T04:17:50;-8.10;99.90
5806;DHT22;2929;50.810;8.342;2024-01-11T04:20:17;-8.10;99.90
5806;DHT22;2929;50.810;8.342;2024-01-11T04:22:44;-8.10;99.90
5806;DHT22;2929;50.810;8.342;2024-01-11T04:25:13;-8.00;99.90
5806;DHT22;2929;50.810;8.342;2024-01-11T04:27:39;-8.00;99.90
5806;DHT22;2929;50.810;8.342;2024-01-11T04:30:07;-8.00;99.90
5806;DHT22;2929;50.810;8.342;2024-01-11T04:32:35;-8.10;99.90
5806;DHT22;2929;50.810;8.342;2024-01-11T04:35:02;-8.20;99.90
5806;DHT22;2929;50.810;8.342;2024-01-11T04:37:29;-8.30;99.90
5806;DHT22;2929;50.810;8.342;2024-01-11T04:39:56;-8.20;99.90
5806;DHT22;2929;50.810;8.342;2024-01-11T04:42:27;-8.20;99.90
5806;DHT22;2929;50.810;8.342;2024-01-11T04:44:54;-8.20;99.90
5806;DHT22;2929;50.810;8.342;2024-01-11T04:47:21;-8.20;99.90
5806;DHT22;2929;50.810;8.342;2024-01-11T04:49:48;-8.30;99.90
5806;DHT22;2929;50.810;8.342;2024-01-11T04:52:15;-8.40;99.90
5806;DHT22;2929;50.810;8.342;2024-01-11T04:54:42;-8.30;99.90
5806;DHT22;2929;50.810;8.342;2024-01-11T04:57:09;-8.30;99.90
5806;DHT22;2929;50.810;8.342;2024-01-11T04:59:38;-8.40;99.90
5806;DHT22;2929;50.810;8.342;2024-01-11T05:02:05;-8.40;99.90
5806;DHT22;2929;50.810;8.342;2024-01-11T05:04:32;-8.40;99.90
5806;DHT22;2929;50.810;8.342;2024-01-11T05:06:59;-8.50;99.90
5806;DHT22;2929;50.810;8.342;2024-01-11T05:09:26;-8.50;99.90
5806;DHT22;2929;50.810;8.342;2024-01-11T05:11:53;-8.40;99.90
5806;DHT22;2929;50.810;8.342;2024-01-11T05:14:20;-8.30;99.90
5806;DHT22;2929;50.810;8.342;2024-01-11T05:16:48;-8.20;99.90
5806;DHT22;2929;50.810;8.342;2024-01-11T05:19:16;-8.20;99.90
5806;DHT22;2929;50.810;8.342;2024-01-11T05:21:42;-8.20;99.90
5806;DHT22;2929;50.810;8.342;2024-01-11T05:24:09;-8.30;99.90
5806;DHT22;2929;50.810;8.342;2024-01-11T05:26:36;-8.30;99.90
5806;DHT22;2929;50.810;8.342;2024-01-11T05:29:03;-8.30;99.90
5806;DHT22;2929;50.810;8.342;2024-01-11T05:31:31;-8.20;99.90
5806;DHT22;2929;50.810;8.342;2024-01-11T05:33:59;-8.10;99.90
5806;DHT22;2929;50.810;8.342;2024-01-11T05:36:26;-8.10;99.90
5806;DHT22;2929;50.810;8.342;2024-01-11T05:38:53;-8.10;99.90
5806;DHT22;2929;50.810;8.342;2024-01-11T05:41:20;-8.20;99.90
5806;DHT22;2929;50.810;8.342;2024-01-11T05:43:46;-8.20;99.90
5806;DHT22;2929;50.810;8.342;2024-01-11T05:46:13;-8.20;99.90
5806;DHT22;2929;50.810;8.342;2024-01-11T05:48:40;-8.30;99.90
5806;DHT22;2929;50.810;8.342;2024-01-11T05:51:09;-8.40;99.90
5806;DHT22;2929;50.810;8.342;2024-01-11T05:53:36;-8.30;99.90
5806;DHT22;2929;50.810;8.342;2024-01-11T05:56:07;-8.40;99.90
5806;DHT22;2929;50.810;8.342;2024-01-11T05:58:34;-8.60;99.90
5806;DHT22;2929;50.810;8.342;2024-01-11T06:01:02;-8.60;99.90
5806;DHT22;2929;50.810;8.342;2024-01-11T06:03:29;-8.60;99.90
5806;DHT22;2929;50.810;8.342;2024-01-11T06:05:59;-8.60;99.90
5806;DHT22;2929;50.810;8.342;2024-01-11T06:08:29;-8.60;99.90
5806;DHT22;2929;50.810;8.342;2024-01-11T06:10:57;-8.60;99.90
5806;DHT22;2929;50.810;8.342;2024-01-11T06:13:24;-8.60;99.90
5806;DHT22;2929;50.810;8.342;2024-01-11T06:15:51;-8.50;99.90
5806;DHT22;2929;50.810;8.342;2024-01-11T06:18:18;-8.60;99.90
5806;DHT22;2929;50.810;8.342;2024-01-11T06:20:45;-8.60;99.90
5806;DHT22;2929;50.810;8.342;2024-01-11T06:23:12;-8.70;99.90
5806;DHT22;2929;50.810;8.342;2024-01-11T06:25:40;-8.60;99.90
5806;DHT22;2929;50.810;8.342;2024-01-11T06:28:07;-8.60;99.90
5806;DHT22;2929;50.810;8.342;2024-01-11T06:30:35;-8.60;99.90
5806;DHT22;2929;50.810;8.342;2024-01-11T06:33:03;-8.70;99.90
5806;DHT22;2929;50.810;8.342;2024-01-11T06:35:30;-8.70;99.90
5806;DHT22;2929;50.810;8.342;2024-01-11T06:37:58;-8.60;99.90
5806;DHT22;2929;50.810;8.342;2024-01-11T06:40:24;-8.70;99.90
5806;DHT22;2929;50.810;8.342;2024-01-11T06:42:53;-8.70;99.90
5806;DHT22;2929;50.810;8.342;2024-01-11T06:45:20;-8.70;99.90
5806;DHT22;2929;50.810;8.342;2024-01-11T06:47:48;-8.70;99.90
5806;DHT22;2929;50.810;8.342;2024-01-11T06:50:15;-8.70;99.90
5806;DHT22;2929;50.810;8.342;2024-01-11T06:52:42;-8.60;99.90
5806;DHT22;2929;50.810;8.342;2024-01-11T06:55:09;-8.80;99.90
5806;DHT22;2929;50.810;8.342;2024-01-11T06:57:36;-8.70;99.90
5806;DHT22;2929;50.810;8.342;2024-01-11T07:00:06;-8.60;99.90
5806;DHT22;2929;50.810;8.342;2024-01-11T07:02:34;-8.70;99.90
5806;DHT22;2929;50.810;8.342;2024-01-11T07:05:01;-8.70;99.90
5806;DHT22;2929;50.810;8.342;2024-01-11T07:07:28;-8.90;99.90
5806;DHT22;2929;50.810;8.342;2024-01-11T07:09:55;-8.90;99.90
5806;DHT22;2929;50.810;8.342;2024-01-11T07:12:22;-9.00;99.90
5806;DHT22;2929;50.810;8.342;2024-01-11T07:14:49;-9.00;99.90
5806;DHT22;2929;50.810;8.342;2024-01-11T07:17:17;-8.90;99.90
5806;DHT22;2929;50.810;8.342;2024-01-11T07:19:44;-8.70;99.90
5806;DHT22;2929;50.810;8.342;2024-01-11T07:22:11;-8.70;99.90
5806;DHT22;2929;50.810;8.342;2024-01-11T07:24:38;-8.70;99.90
5806;DHT22;2929;50.810;8.342;2024-01-11T07:27:05;-8.70;99.90
5806;DHT22;2929;50.810;8.342;2024-01-11T07:29:32;-8.70;99.90
5806;DHT22;2929;50.810;8.342;2024-01-11T07:31:58;-8.70;99.90
5806;DHT22;2929;50.810;8.342;2024-01-11T07:34:27;-8.80;99.90
5806;DHT22;2929;50.810;8.342;2024-01-11T07:36:54;-8.70;99.90
5806;DHT22;2929;50.810;8.342;2024-01-11T07:39:22;-8.70;99.90
5806;DHT22;2929;50.810;8.342;2024-01-11T07:41:50;-8.70;99.90
5806;DHT22;2929;50.810;8.342;2024-01-11T07:44:18;-8.60;99.90
5806;DHT22;2929;50.810;8.342;2024-01-11T07:46:46;-8.60;99.90
5806;DHT22;2929;50.810;8.342;2024-01-11T07:49:13;-8.50;99.90
5806;DHT22;2929;50.810;8.342;2024-01-11T07:51:42;-8.50;99.90
5806;DHT22;2929;50.810;8.342;2024-01-11T07:54:09;-8.60;99.90
5806;DHT22;2929;50.810;8.342;2024-01-11T07:56:36;-8.60;99.90
5806;DHT22;2929;50.810;8.342;2024-01-11T07:59:03;-8.60;99.90
5806;DHT22;2929;50.810;8.342;2024-01-11T08:01:30;-8.70;99.90
5806;DHT22;2929;50.810;8.342;2024-01-11T08:03:57;-8.80;99.90
5806;DHT22;2929;50.810;8.342;2024-01-11T08:06:24;-8.70;99.90
5806;DHT22;2929;50.810;8.342;2024-01-11T08:08:52;-8.60;99.90
5806;DHT22;2929;50.810;8.342;2024-01-11T08:11:20;-8.60;99.90
5806;DHT22;2929;50.810;8.342;2024-01-11T08:13:47;-8.60;99.90
5806;DHT22;2929;50.810;8.342;2024-01-11T08:16:17;-8.40;99.90
5806;DHT22;2929;50.810;8.342;2024-01-11T08:18:44;-8.40;99.90
5806;DHT22;2929;50.810;8.342;2024-01-11T08:21:11;-8.40;99.90
5806;DHT22;2929;50.810;8.342;2024-01-11T08:23:40;-8.40;99.90
5806;DHT22;2929;50.810;8.342;2024-01-11T08:26:12;-8.20;99.90
5806;DHT22;2929;50.810;8.342;2024-01-11T08:28:39;-8.10;99.90
5806;DHT22;2929;50.810;8.342;2024-01-11T08:31:07;-8.10;99.90
5806;DHT22;2929;50.810;8.342;2024-01-11T08:33:34;-8.10;99.90
5806;DHT22;2929;50.810;8.342;2024-01-11T08:36:03;-8.00;99.90
5806;DHT22;2929;50.810;8.342;2024-01-11T08:38:30;-8.00;99.90
5806;DHT22;2929;50.810;8.342;2024-01-11T08:40:57;-8.00;99.90
5806;DHT22;2929;50.810;8.342;2024-01-11T08:43:26;-8.00;99.90
5806;DHT22;2929;50.810;8.342;2024-01-11T08:45:53;-7.80;99.90
5806;DHT22;2929;50.810;8.342;2024-01-11T08:48:20;-7.80;99.90
5806;DHT22;2929;50.810;8.342;2024-01-11T08:50:47;-7.70;99.90
5806;DHT22;2929;50.810;8.342;2024-01-11T08:53:14;-7.60;99.90
5806;DHT22;2929;50.810;8.342;2024-01-11T08:55:42;-7.50;99.90
5806;DHT22;2929;50.810;8.342;2024-01-11T08:58:10;-7.40;99.90
5806;DHT22;2929;50.810;8.342;2024-01-11T09:00:39;-7.40;99.90
5806;DHT22;2929;50.810;8.342;2024-01-11T09:03:06;-7.40;99.90
5806;DHT22;2929;50.810;8.342;2024-01-11T09:05:33;-7.30;99.90
5806;DHT22;2929;50.810;8.342;2024-01-11T09:08:02;-7.20;99.90
5806;DHT22;2929;50.810;8.342;2024-01-11T09:10:33;-7.20;99.90
5806;DHT22;2929;50.810;8.342;2024-01-11T09:13:00;-7.10;99.90
5806;DHT22;2929;50.810;8.342;2024-01-11T09:15:27;-7.00;99.90
5806;DHT22;2929;50.810;8.342;2024-01-11T09:17:55;-6.90;99.90
5806;DHT22;2929;50.810;8.342;2024-01-11T09:20:22;-6.90;99.90
5806;DHT22;2929;50.810;8.342;2024-01-11T09:22:49;-6.90;99.90
5806;DHT22;2929;50.810;8.342;2024-01-11T09:25:16;-6.80;99.90
5806;DHT22;2929;50.810;8.342;2024-01-11T09:27:43;-6.70;99.90
5806;DHT22;2929;50.810;8.342;2024-01-11T09:30:11;-6.60;99.90
5806;DHT22;2929;50.810;8.342;2024-01-11T09:32:38;-6.50;99.90
5806;DHT22;2929;50.810;8.342;2024-01-11T09:35:07;-6.40;99.90
5806;DHT22;2929;50.810;8.342;2024-01-11T09:37:34;-6.30;99.90
5806;DHT22;2929;50.810;8.342;2024-01-11T09:40:01;-6.10;99.90
5806;DHT22;2929;50.810;8.342;2024-01-11T09:42:29;-6.10;99.90
5806;DHT22;2929;50.810;8.342;2024-01-11T09:44:56;-5.90;99.90
5806;DHT22;2929;50.810;8.342;2024-01-11T09:47:24;-5.70;99.90
5806;DHT22;2929;50.810;8.342;2024-01-11T09:49:53;-5.70;99.90
5806;DHT22;2929;50.810;8.342;2024-01-11T09:52:22;-5.60;99.90
5806;DHT22;2929;50.810;8.342;2024-01-11T09:54:51;-5.50;99.90
5806;DHT22;2929;50.810;8.342;2024-01-11T09:57:24;-5.40;99.90
5806;DHT22;2929;50.810;8.342;2024-01-11T09:59:54;-5.30;99.90
5806;DHT22;2929;50.810;8.342;2024-01-11T10:02:22;-5.20;99.90
5806;DHT22;2929;50.810;8.342;2024-01-11T10:04:50;-5.10;99.90
5806;DHT22;2929;50.810;8.342;2024-01-11T10:07:21;-4.90;99.90
5806;DHT22;2929;50.810;8.342;2024-01-11T10:09:48;-4.80;99.90
5806;DHT22;2929;50.810;8.342;2024-01-11T10:12:17;-4.70;99.90
5806;DHT22;2929;50.810;8.342;2024-01-11T10:14:46;-4.70;99.90
5806;DHT22;2929;50.810;8.342;2024-01-11T10:17:14;-4.60;99.90
5806;DHT22;2929;50.810;8.342;2024-01-11T10:19:41;-4.40;99.90
5806;DHT22;2929;50.810;8.342;2024-01-11T10:22:09;-4.30;99.90
5806;DHT22;2929;50.810;8.342;2024-01-11T10:24:39;-4.20;99.90
5806;DHT22;2929;50.810;8.342;2024-01-11T10:27:09;-4.10;99.90
5806;DHT22;2929;50.810;8.342;2024-01-11T10:29:36;-4.00;99.90
5806;DHT22;2929;50.810;8.342;2024-01-11T10:32:04;-3.90;99.90
5806;DHT22;2929;50.810;8.342;2024-01-11T10:34:31;-3.80;99.90
5806;DHT22;2929;50.810;8.342;2024-01-11T10:36:59;-3.70;99.90
5806;DHT22;2929;50.810;8.342;2024-01-11T10:39:27;-3.70;99.90
5806;DHT22;2929;50.810;8.342;2024-01-11T10:42:04;-3.50;99.90
5806;DHT22;2929;50.810;8.342;2024-01-11T10:44:34;-3.30;99.90
5806;DHT22;2929;50.810;8.342;2024-01-11T10:47:02;-3.00;99.90
5806;DHT22;2929;50.810;8.342;2024-01-11T10:49:32;-2.80;99.90
5806;DHT22;2929;50.810;8.342;2024-01-11T10:52:02;-2.40;99.90
5806;DHT22;2929;50.810;8.342;2024-01-11T10:54:30;-2.20;99.90
5806;DHT22;2929;50.810;8.342;2024-01-11T10:57:00;-1.90;99.90
5806;DHT22;2929;50.810;8.342;2024-01-11T10:59:29;-1.70;99.90
5806;DHT22;2929;50.810;8.342;2024-01-11T11:02:03;-1.50;99.90
5806;DHT22;2929;50.810;8.342;2024-01-11T11:04:32;-1.20;99.90
5806;DHT22;2929;50.810;8.342;2024-01-11T11:07:01;-0.90;99.90
5806;DHT22;2929;50.810;8.342;2024-01-11T11:09:29;-0.70;99.90
5806;DHT22;2929;50.810;8.342;2024-01-11T11:11:59;-0.60;99.90
5806;DHT22;2929;50.810;8.342;2024-01-11T11:14:28;-0.60;99.90
5806;DHT22;2929;50.810;8.342;2024-01-11T11:16:55;-0.50;99.90
5806;DHT22;2929;50.810;8.342;2024-01-11T11:19:22;-0.40;99.90
5806;DHT22;2929;50.810;8.342;2024-01-11T11:21:49;-0.30;99.90
5806;DHT22;2929;50.810;8.342;2024-01-11T11:24:16;0.00;99.90
5806;DHT22;2929;50.810;8.342;2024-01-11T11:26:44;0.20;99.90
5806;DHT22;2929;50.810;8.342;2024-01-11T11:29:12;0.50;99.90
5806;DHT22;2929;50.810;8.342;2024-01-11T11:31:42;0.70;99.90
5806;DHT22;2929;50.810;8.342;2024-01-11T11:34:11;1.20;99.90
5806;DHT22;2929;50.810;8.342;2024-01-11T11:36:40;1.60;99.90
5806;DHT22;2929;50.810;8.342;2024-01-11T11:39:10;1.40;99.90
5806;DHT22;2929;50.810;8.342;2024-01-11T11:41:38;2.00;99.90
5806;DHT22;2929;50.810;8.342;2024-01-11T11:44:06;2.50;99.90
5806;DHT22;2929;50.810;8.342;2024-01-11T11:46:34;3.00;99.90
5806;DHT22;2929;50.810;8.342;2024-01-11T11:49:01;3.40;99.90
5806;DHT22;2929;50.810;8.342;2024-01-11T11:51:28;3.60;99.90
5806;DHT22;2929;50.810;8.342;2024-01-11T11:53:56;3.90;99.90
5806;DHT22;2929;50.810;8.342;2024-01-11T11:56:24;4.10;99.90
5806;DHT22;2929;50.810;8.342;2024-01-11T11:58:50;4.30;99.80
5806;DHT22;2929;50.810;8.342;2024-01-11T12:01:18;4.50;99.90
5806;DHT22;2929;50.810;8.342;2024-01-11T12:03:47;4.80;97.40
5806;DHT22;2929;50.810;8.342;2024-01-11T12:06:16;5.00;96.00
5806;DHT22;2929;50.810;8.342;2024-01-11T12:08:44;5.30;94.30
5806;DHT22;2929;50.810;8.342;2024-01-11T12:11:15;5.40;93.30
5806;DHT22;2929;50.810;8.342;2024-01-11T12:13:44;5.70;91.80
5806;DHT22;2929;50.810;8.342;2024-01-11T12:16:11;6.00;89.90
5806;DHT22;2929;50.810;8.342;2024-01-11T12:18:39;6.30;82.00
5806;DHT22;2929;50.810;8.342;2024-01-11T12:21:08;6.30;79.50
5806;DHT22;2929;50.810;8.342;2024-01-11T12:23:36;6.60;79.90
5806;DHT22;2929;50.810;8.342;2024-01-11T12:26:06;6.90;76.40
5806;DHT22;2929;50.810;8.342;2024-01-11T12:28:38;6.80;73.10
5806;DHT22;2929;50.810;8.342;2024-01-11T12:31:04;7.10;73.30
5806;DHT22;2929;50.810;8.342;2024-01-11T12:33:32;7.20;71.60
5806;DHT22;2929;50.810;8.342;2024-01-11T12:36:01;7.40;71.80
5806;DHT22;2929;50.810;8.342;2024-01-11T12:38:29;7.40;68.70
5806;DHT22;2929;50.810;8.342;2024-01-11T12:40:56;7.50;68.60
5806;DHT22;2929;50.810;8.342;2024-01-11T12:43:23;7.40;67.10
5806;DHT22;2929;50.810;8.342;2024-01-11T12:45:50;7.40;69.20
5806;DHT22;2929;50.810;8.342;2024-01-11T12:48:19;7.70;68.70
5806;DHT22;2929;50.810;8.342;2024-01-11T12:50:46;7.60;69.50
5806;DHT22;2929;50.810;8.342;2024-01-11T12:53:14;7.90;68.20
5806;DHT22;2929;50.810;8.342;2024-01-11T12:55:46;7.90;66.90
5806;DHT22;2929;50.810;8.342;2024-01-11T12:58:14;7.80;64.20
5806;DHT22;2929;50.810;8.342;2024-01-11T13:00:44;8.00;66.80
5806;DHT22;2929;50.810;8.342;2024-01-11T13:03:12;8.00;66.90
5806;DHT22;2929;50.810;8.342;2024-01-11T13:05:39;8.30;63.70
5806;DHT22;2929;50.810;8.342;2024-01-11T13:08:08;8.40;64.80
5806;DHT22;2929;50.810;8.342;2024-01-11T13:10:35;8.20;63.90
5806;DHT22;2929;50.810;8.342;2024-01-11T13:13:04;8.30;64.70
5806;DHT22;2929;50.810;8.342;2024-01-11T13:15:31;8.60;64.00
5806;DHT22;2929;50.810;8.342;2024-01-11T13:17:59;8.90;65.20
5806;DHT22;2929;50.810;8.342;2024-01-11T13:20:27;8.80;66.40
5806;DHT22;2929;50.810;8.342;2024-01-11T13:23:12;8.30;62.90
5806;DHT22;2929;50.810;8.342;2024-01-11T13:25:40;8.60;65.60
5806;DHT22;2929;50.810;8.342;2024-01-11T13:28:09;8.30;62.70
5806;DHT22;2929;50.810;8.342;2024-01-11T13:30:38;7.80;63.30
5806;DHT22;2929;50.810;8.342;2024-01-11T13:33:06;7.60;66.50
5806;DHT22;2929;50.810;8.342;2024-01-11T13:35:33;7.50;64.60
5806;DHT22;2929;50.810;8.342;2024-01-11T13:38:00;7.60;63.70
5806;DHT22;2929;50.810;8.342;2024-01-11T13:40:32;7.80;63.60
5806;DHT22;2929;50.810;8.342;2024-01-11T13:43:00;8.10;65.20
5806;DHT22;2929;50.810;8.342;2024-01-11T13:45:29;8.40;65.90
5806;DHT22;2929;50.810;8.342;2024-01-11T13:47:56;8.70;65.70
5806;DHT22;2929;50.810;8.342;2024-01-11T13:50:24;9.20;67.20
5806;DHT22;2929;50.810;8.342;2024-01-11T13:52:51;9.90;62.30
5806;DHT22;2929;50.810;8.342;2024-01-11T13:55:18;10.10;59.80
5806;DHT22;2929;50.810;8.342;2024-01-11T13:57:47;10.60;58.40
5806;DHT22;2929;50.810;8.342;2024-01-11T14:00:14;12.00;58.30
5806;DHT22;2929;50.810;8.342;2024-01-11T14:02:45;12.20;58.70
5806;DHT22;2929;50.810;8.342;2024-01-11T14:05:12;12.00;60.90
5806;DHT22;2929;50.810;8.342;2024-01-11T14:07:41;12.20;60.20
5806;DHT22;2929;50.810;8.342;2024-01-11T14:10:10;13.20;58.40
5806;DHT22;2929;50.810;8.342;2024-01-11T14:12:39;12.80;57.90
5806;DHT22;2929;50.810;8.342;2024-01-11T14:15:08;12.20;57.20
5806;DHT22;2929;50.810;8.342;2024-01-11T14:17:37;11.90;57.40
5806;DHT22;2929;50.810;8.342;2024-01-11T14:20:07;12.50;58.10
5806;DHT22;2929;50.810;8.342;2024-01-11T14:22:38;12.60;57.20
5806;DHT22;2929;50.810;8.342;2024-01-11T14:25:06;12.60;58.10
5806;DHT22;2929;50.810;8.342;2024-01-11T14:27:33;12.60;59.40
5806;DHT22;2929;50.810;8.342;2024-01-11T14:30:00;11.50;59.90
5806;DHT22;2929;50.810;8.342;2024-01-11T14:32:26;10.70;62.70
5806;DHT22;2929;50.810;8.342;2024-01-11T14:34:54;9.90;65.70
5806;DHT22;2929;50.810;8.342;2024-01-11T14:37:23;8.70;65.80
5806;DHT22;2929;50.810;8.342;2024-01-11T14:39:50;8.00;67.80
5806;DHT22;2929;50.810;8.342;2024-01-11T14:42:18;7.40;69.80
5806;DHT22;2929;50.810;8.342;2024-01-11T14:44:46;7.90;71.90
5806;DHT22;2929;50.810;8.342;2024-01-11T14:47:15;7.40;74.30
5806;DHT22;2929;50.810;8.342;2024-01-11T14:49:43;6.30;76.00
5806;DHT22;2929;50.810;8.342;2024-01-11T14:52:10;5.30;80.10
5806;DHT22;2929;50.810;8.342;2024-01-11T14:54:38;4.60;84.20
5806;DHT22;2929;50.810;8.342;2024-01-11T14:57:06;3.80;88.60
5806;DHT22;2929;50.810;8.342;2024-01-11T14:59:34;3.40;91.10
5806;DHT22;2929;50.810;8.342;2024-01-11T15:02:01;3.20;92.20
5806;DHT22;2929;50.810;8.342;2024-01-11T15:04:29;3.00;94.20
5806;DHT22;2929;50.810;8.342;2024-01-11T15:06:57;2.50;96.70
5806;DHT22;2929;50.810;8.342;2024-01-11T15:09:24;2.40;96.90
5806;DHT22;2929;50.810;8.342;2024-01-11T15:11:53;2.40;98.60
5806;DHT22;2929;50.810;8.342;2024-01-11T15:14:19;2.40;99.30
5806;DHT22;2929;50.810;8.342;2024-01-11T15:16:46;1.90;99.90
5806;DHT22;2929;50.810;8.342;2024-01-11T15:19:14;1.90;99.90
5806;DHT22;2929;50.810;8.342;2024-01-11T15:21:41;1.90;99.90
5806;DHT22;2929;50.810;8.342;2024-01-11T15:24:08;1.80;99.90
5806;DHT22;2929;50.810;8.342;2024-01-11T15:26:35;1.80;99.90
5806;DHT22;2929;50.810;8.342;2024-01-11T15:29:03;1.60;99.90
5806;DHT22;2929;50.810;8.342;2024-01-11T15:31:31;1.50;99.90
5806;DHT22;2929;50.810;8.342;2024-01-11T15:34:01;1.30;99.90
5806;DHT22;2929;50.810;8.342;2024-01-11T15:36:28;1.30;99.90
5806;DHT22;2929;50.810;8.342;2024-01-11T15:38:55;1.10;99.90
5806;DHT22;2929;50.810;8.342;2024-01-11T15:41:22;1.00;99.90
5806;DHT22;2929;50.810;8.342;2024-01-11T15:43:50;0.90;99.90
5806;DHT22;2929;50.810;8.342;2024-01-11T15:46:18;0.90;99.90
5806;DHT22;2929;50.810;8.342;2024-01-11T15:48:45;0.80;99.90
5806;DHT22;2929;50.810;8.342;2024-01-11T15:51:12;0.70;99.90
5806;DHT22;2929;50.810;8.342;2024-01-11T15:53:40;0.50;99.90
5806;DHT22;2929;50.810;8.342;2024-01-11T15:56:06;0.30;99.90
5806;DHT22;2929;50.810;8.342;2024-01-11T15:58:33;0.40;99.90
5806;DHT22;2929;50.810;8.342;2024-01-11T16:01:00;0.30;99.90
5806;DHT22;2929;50.810;8.342;2024-01-11T16:03:30;0.30;99.90
5806;DHT22;2929;50.810;8.342;2024-01-11T16:05:57;0.20;99.90
5806;DHT22;2929;50.810;8.342;2024-01-11T16:08:24;0.10;99.90